Details From EGSS - London Stansted
To LXGB - Gibraltar
Flight Number -
Tags Decoded
Created
Modified
Stats Distance 993 nm / 1,840 km
Max Altitude 0 ft / 0 m
Waypoints 6
Social Downloads 4
Likes 0
Share VATSIM

Download

Looking for another format? Having issues loading an existing format? Contact us
Advertisement - Login to hide

Notes

Decoded

Route

EGSS NTS28 NENEM KALMA PIMOS LXGB

ID Type Via Altitude Latitude Longitude Leg Dist Tot Dist Heading (true) Name
O EGSS APT - 0 ft / 0 m 51.87508˚ 0.21993˚ - 0 nm - -
NTS28 FIX - 0 ft / 0 m 47.62123˚ -1.75217˚ 266 nm 266 nm 197° / 196° -
NENEM FIX - 0 ft / 0 m 44.05139˚ -3.15028˚ 222 nm 488 nm 196° / 195° -
KALMA FIX - 0 ft / 0 m 40.41143˚ -4.29939˚ 224 nm 713 nm 194° / 193° -
PIMOS FIX - 0 ft / 0 m 36.15037˚ -4.89346˚ 257 nm 970 nm 186° / 186° -
O LXGB APT - 0 ft / 0 m 36.15080˚ -5.35977˚ 22 nm 993 nm 270° / 270° -

Altitude Profile

Advertisement - Login to hide

Weather


0- 5 10 15 20 25 30 35+ Temperature / ° C

Clouds and Precipitation
Forecast for 2018-05-21 06:00 UTC. Updated 2 hours ago

Ground ~20,000 ft ~40,000 ft Winds

EGSS

Details ICAO EGSS (STN)
Name London Stansted
Region United Kingdom
Timezone Europe/London (UTC+1.0)
Stats Elevation 348 ft / 106 m (AMSL)
Location 51.885097° 0.234962°
Runways 1
Magnetic Variation 0.299° W

METAR

EGSS 210720Z AUTO 02004KT 350V070 9000 NCD 14/11 Q1017

Decode

TAF

TAF EGSS 210456Z 2106/2212 02005KT 6000 NSC BECMG 2106/2109 9999 PROB30 TEMPO 2113/2119 4000 +TSRA PROB30 TEMPO 2119/2203 8000 SHRA

Decode

Departure Runways

ID Width Length Bearing (true) Bearing (mag) Surface Threshold Offset Overrun Length
04 151 ft / 46 m 10,011 ft / 3,052 m 42.79° 43.09° Asphalt 994 ft / 303 m 0 ft / 0 m
22 151 ft / 46 m 10,011 ft / 3,052 m 222.81° 223.11° Asphalt 0 ft / 0 m 0 ft / 0 m

LXGB

Details ICAO LXGB (GIB)
Name Gibraltar
Region Gibralter
Timezone Europe/Gibraltar (UTC+2.0)
Stats Elevation 15 ft / 5 m (AMSL)
Location 36.151209° -5.349664°
Runways 1
Magnetic Variation 1.073° W

METAR

LXGB 210650Z 25002KT CAVOK 16/13 Q1013 NOSIG

Decode

TAF

Not found

Destination Runways

ID Width Length Bearing (true) Bearing (mag) Surface Threshold Offset Overrun Length
27 151 ft / 46 m 5,992 ft / 1,826 m 267.56° 268.63° Asphalt 367 ft / 112 m 89 ft / 27 m
9 151 ft / 46 m 5,992 ft / 1,826 m 87.54° 88.61° Asphalt 299 ft / 91 m 52 ft / 16 m

Popular Alternatives